Time;durP1;ratioP1;P1;durP2;ratioP2;P2;SDS_P1;SDS_P2;PMS_P1;PMS_P2;Temp;Humidity;BMP_temperature;BMP_pressure;BME280_temperature;BME280_humidity;BME280_pressure;Samples;Min_cycle;Max_cycle;Signal;HPM_P1;HPM_P2
2022/01/01 00:01:34;;;;;;;8.07;7.20;;;15.90;99.90;;;;;;5077390;28;20197;-71
2022/01/01 00:04:00;;;;;;;9.85;6.72;;;15.90;99.90;;;;;;5073171;28;20188;-72
2022/01/01 00:06:25;;;;;;;7.28;6.03;;;15.90;99.90;;;;;;5073367;28;20222;-72
2022/01/01 00:08:52;;;;;;;7.82;6.00;;;15.90;99.90;;;;;;5075589;28;20192;-72
2022/01/01 00:11:17;;;;;;;9.38;5.68;;;15.90;99.90;;;;;;5072578;28;20191;-74
2022/01/01 00:13:43;;;;;;;7.20;5.72;;;15.90;99.90;;;;;;5101895;28;20180;-74
2022/01/01 00:16:09;;;;;;;7.63;6.18;;;15.90;99.90;;;;;;5104050;28;20238;-74
2022/01/01 00:18:41;;;;;;;7.93;6.18;;;15.90;99.90;;;;;;5073844;28;20275;-72
2022/01/01 00:21:07;;;;;;;9.23;6.15;;;15.90;99.90;;;;;;5069476;28;20180;-70
2022/01/01 00:23:33;;;;;;;10.10;6.97;;;15.90;99.90;;;;;;5075035;28;20290;-73
2022/01/01 00:26:02;;;;;;;10.70;6.93;;;15.90;99.90;;;;;;5069470;28;20188;-71
2022/01/01 00:28:32;;;;;;;9.52;7.05;;;15.90;99.90;;;;;;5087240;28;20222;-74
2022/01/01 00:30:58;;;;;;;9.85;6.68;;;15.80;99.90;;;;;;5070861;28;20199;-73
2022/01/01 00:33:25;;;;;;;7.47;6.00;;;15.80;99.90;;;;;;5103386;28;20202;-69
2022/01/01 00:35:54;;;;;;;8.80;5.90;;;15.80;99.90;;;;;;5101680;28;20172;-74
2022/01/01 00:38:19;;;;;;;7.43;5.32;;;15.80;99.90;;;;;;5071446;28;20274;-72
2022/01/01 00:40:47;;;;;;;7.13;5.15;;;15.80;99.90;;;;;;5070382;28;20386;-73
2022/01/01 00:43:13;;;;;;;7.97;5.35;;;15.80;99.90;;;;;;5066955;28;20268;-74
2022/01/01 00:45:41;;;;;;;6.97;4.95;;;15.80;99.90;;;;;;5068781;28;20434;-73
2022/01/01 00:48:06;;;;;;;7.40;5.07;;;15.70;99.90;;;;;;5076503;28;20192;-73
2022/01/01 00:50:32;;;;;;;8.30;5.10;;;15.70;99.90;;;;;;5078008;28;20203;-73
2022/01/01 00:53:01;;;;;;;7.03;4.97;;;15.70;99.90;;;;;;5076365;28;20175;-75
2022/01/01 00:55:30;;;;;;;8.20;5.72;;;15.70;99.90;;;;;;5075505;28;20476;-72
2022/01/01 00:57:57;;;;;;;8.05;5.72;;;15.70;99.90;;;;;;5073832;28;20184;-74
2022/01/01 01:00:23;;;;;;;8.25;5.63;;;15.70;99.90;;;;;;5076973;28;20176;-74
2022/01/01 01:02:49;;;;;;;8.95;5.63;;;15.70;99.90;;;;;;5078873;28;21829;-70
2022/01/01 01:05:14;;;;;;;7.47;6.00;;;15.70;99.90;;;;;;5071156;28;20190;-71
2022/01/01 01:07:40;;;;;;;9.65;6.20;;;15.70;99.90;;;;;;5075096;28;20285;-74
2022/01/01 01:10:06;;;;;;;9.73;6.75;;;15.70;99.90;;;;;;5077416;28;20192;-74
2022/01/01 01:12:44;;;;;;;12.07;7.63;;;15.60;99.90;;;;;;5077929;28;20172;-72
2022/01/01 01:15:17;;;;;;;10.52;7.22;;;15.60;99.90;;;;;;5075429;28;20313;-74
2022/01/01 01:17:52;;;;;;;8.70;6.43;;;15.60;99.90;;;;;;5104481;27;20199;-72
2022/01/01 01:20:20;;;;;;;10.02;6.97;;;15.60;99.90;;;;;;5070542;28;20176;-72
2022/01/01 01:22:46;;;;;;;9.10;5.97;;;15.60;99.90;;;;;;5073233;28;20173;-72
2022/01/01 01:25:13;;;;;;;8.27;5.85;;;15.60;99.90;;;;;;5103541;28;20199;-75
2022/01/01 01:27:41;;;;;;;9.82;5.53;;;15.60;99.90;;;;;;5075860;28;20215;-75
2022/01/01 01:30:10;;;;;;;8.15;4.88;;;15.70;99.90;;;;;;5073479;28;20246;-72
2022/01/01 01:32:36;;;;;;;6.25;4.47;;;15.60;99.90;;;;;;5073117;28;20312;-74
2022/01/01 01:35:03;;;;;;;8.10;4.50;;;15.60;99.90;;;;;;5080320;28;20240;-73
2022/01/01 01:37:29;;;;;;;6.22;4.03;;;15.70;99.90;;;;;;5075545;28;20199;-74
2022/01/01 01:39:56;;;;;;;5.55;3.35;;;15.70;99.90;;;;;;5073633;28;20207;-75
2022/01/01 01:42:23;;;;;;;5.25;3.05;;;15.70;99.90;;;;;;5073837;28;20180;-74
2022/01/01 01:44:54;;;;;;;6.07;3.40;;;15.70;99.90;;;;;;5075280;28;20199;-74
2022/01/01 01:47:29;;;;;;;5.38;2.78;;;15.80;99.90;;;;;;5109796;28;20257;-70
2022/01/01 01:49:57;;;;;;;6.82;3.00;;;15.80;99.90;;;;;;5107384;27;20203;-70
2022/01/01 01:52:31;;;;;;;5.15;2.70;;;15.80;99.90;;;;;;5071334;28;20200;-75
2022/01/01 01:54:57;;;;;;;7.38;2.83;;;15.80;99.90;;;;;;5076657;28;20183;-74
2022/01/01 01:57:27;;;;;;;7.07;2.90;;;15.80;99.90;;;;;;5075160;28;20184;-73
2022/01/01 01:59:53;;;;;;;4.22;2.42;;;15.80;99.90;;;;;;5076199;28;20187;-75
2022/01/01 02:02:21;;;;;;;4.40;2.53;;;15.90;99.90;;;;;;5076806;28;20259;-74
2022/01/01 02:04:47;;;;;;;5.75;2.53;;;15.90;99.90;;;;;;5072919;28;20247;-74
2022/01/01 02:07:17;;;;;;;6.05;2.80;;;15.90;99.90;;;;;;5075735;28;20275;-74
2022/01/01 02:09:48;;;;;;;5.15;2.58;;;15.90;99.90;;;;;;5080343;28;20259;-73
2022/01/01 02:12:16;;;;;;;5.63;2.65;;;15.90;99.90;;;;;;5076781;28;20283;-74
2022/01/01 02:17:25;;;;;;;5.75;2.63;;;15.90;99.90;;;;;;5093127;28;20180;-75
2022/01/01 02:20:00;;;;;;;5.63;2.70;;;15.90;99.90;;;;;;5080897;28;20179;-72
2022/01/01 02:22:37;;;;;;;5.45;2.78;;;15.90;99.90;;;;;;5099222;28;20175;-75
2022/01/01 02:25:04;;;;;;;5.50;2.50;;;15.90;99.90;;;;;;5074627;28;20184;-75
2022/01/01 02:27:32;;;;;;;5.88;2.40;;;15.90;99.90;;;;;;5074437;28;20196;-71
2022/01/01 02:30:02;;;;;;;3.92;2.80;;;15.90;99.90;;;;;;5075411;28;20176;-74
2022/01/01 02:32:30;;;;;;;5.03;2.63;;;15.90;99.90;;;;;;5078615;28;20302;-74
2022/01/01 02:34:56;;;;;;;5.70;2.95;;;15.90;99.90;;;;;;5079613;28;20172;-75
2022/01/01 02:37:24;;;;;;;4.22;2.38;;;15.90;99.90;;;;;;5076599;28;20175;-72
2022/01/01 02:39:53;;;;;;;4.10;2.53;;;16.00;99.90;;;;;;5067861;28;20318;-71
2022/01/01 02:42:23;;;;;;;4.65;2.40;;;15.90;99.90;;;;;;5077775;28;20187;-75
2022/01/01 02:44:53;;;;;;;3.65;2.58;;;16.00;99.90;;;;;;5069228;28;20218;-71
2022/01/01 02:47:19;;;;;;;3.58;2.28;;;15.90;99.90;;;;;;5074465;28;20208;-73
2022/01/01 02:49:49;;;;;;;6.50;3.20;;;15.90;99.90;;;;;;5079827;28;20187;-75
2022/01/01 02:52:17;;;;;;;3.67;2.30;;;15.90;99.90;;;;;;5074443;28;20179;-75
2022/01/01 02:54:45;;;;;;;5.07;2.47;;;15.90;99.90;;;;;;5075600;28;20187;-75
2022/01/01 02:57:13;;;;;;;3.78;2.55;;;15.90;99.90;;;;;;5078164;28;20202;-74
2022/01/01 02:59:39;;;;;;;4.75;2.40;;;15.80;99.90;;;;;;5074646;28;20192;-76
2022/01/01 03:02:07;;;;;;;4.25;2.70;;;15.80;99.90;;;;;;5073858;28;20180;-72
2022/01/01 03:04:32;;;;;;;4.88;2.50;;;15.80;99.90;;;;;;5072675;28;20177;-75
2022/01/01 03:07:03;;;;;;;4.82;2.40;;;15.80;99.90;;;;;;5109444;28;20203;-74
2022/01/01 03:09:34;;;;;;;5.38;2.50;;;15.80;99.90;;;;;;5068991;28;20183;-72
2022/01/01 03:12:02;;;;;;;4.57;2.30;;;15.80;99.90;;;;;;5073694;28;20176;-70
2022/01/01 03:14:32;;;;;;;4.85;2.53;;;15.70;99.90;;;;;;5077968;28;20195;-76
2022/01/01 03:16:58;;;;;;;5.47;2.60;;;15.70;99.90;;;;;;5073074;28;20176;-75
2022/01/01 03:19:24;;;;;;;3.92;2.50;;;15.70;99.90;;;;;;5076026;28;20168;-71
2022/01/01 03:21:52;;;;;;;4.28;2.63;;;15.70;99.90;;;;;;5070903;28;20200;-75
2022/01/01 03:24:18;;;;;;;4.93;2.58;;;15.70;99.90;;;;;;5073142;28;20195;-75
2022/01/01 03:26:46;;;;;;;3.25;1.80;;;15.70;99.90;;;;;;5070697;28;20188;-75
2022/01/01 03:29:12;;;;;;;4.78;2.20;;;15.70;99.90;;;;;;5074568;28;20207;-71
2022/01/01 03:31:38;;;;;;;3.75;2.08;;;15.70;99.90;;;;;;5107027;28;20168;-71
2022/01/01 03:34:04;;;;;;;4.15;2.30;;;15.60;99.90;;;;;;5076291;28;20182;-72
2022/01/01 03:36:30;;;;;;;4.65;2.38;;;15.60;99.90;;;;;;5079681;28;20233;-73
2022/01/01 03:39:00;;;;;;;5.60;2.50;;;15.60;99.90;;;;;;5079561;28;20176;-72
2022/01/01 03:41:28;;;;;;;5.60;2.15;;;15.60;99.90;;;;;;5075049;28;20259;-75
2022/01/01 03:43:54;;;;;;;7.25;2.20;;;15.60;99.90;;;;;;5074966;28;20191;-75
2022/01/01 03:46:19;;;;;;;2.90;1.75;;;15.60;99.90;;;;;;5072388;28;20183;-75
2022/01/01 03:48:47;;;;;;;5.43;2.20;;;15.60;99.90;;;;;;5077832;28;20179;-73
2022/01/01 03:51:15;;;;;;;5.47;1.90;;;15.60;99.90;;;;;;5076177;28;22942;-71
2022/01/01 03:53:41;;;;;;;3.22;1.77;;;15.60;99.90;;;;;;5072237;28;20172;-75
2022/01/01 03:56:07;;;;;;;5.38;2.10;;;15.60;99.90;;;;;;5076202;28;20191;-75
2022/01/01 03:58:36;;;;;;;3.22;1.85;;;15.70;99.90;;;;;;5076650;28;20187;-73
2022/01/01 04:01:01;;;;;;;5.72;1.92;;;15.70;99.90;;;;;;5074203;28;20176;-74
2022/01/01 04:03:27;;;;;;;4.30;1.80;;;15.70;99.90;;;;;;5073172;28;20218;-75
2022/01/01 04:05:53;;;;;;;5.65;2.25;;;15.70;99.90;;;;;;5071830;28;20325;-72
2022/01/01 04:08:18;;;;;;;3.80;1.80;;;15.70;99.90;;;;;;5108182;28;20191;-74
2022/01/01 04:10:46;;;;;;;4.38;1.88;;;15.70;99.90;;;;;;5075804;28;20290;-74
2022/01/01 04:13:12;;;;;;;5.60;1.75;;;15.70;99.90;;;;;;5073016;28;20191;-75
2022/01/01 04:15:42;;;;;;;3.92;1.60;;;15.70;99.90;;;;;;5074203;28;20176;-71
2022/01/01 04:18:13;;;;;;;4.10;1.75;;;15.70;99.90;;;;;;5073383;28;20231;-72
2022/01/01 04:20:49;;;;;;;7.38;2.10;;;15.70;99.90;;;;;;5074647;28;20184;-74
2022/01/01 04:23:17;;;;;;;4.18;2.00;;;15.70;99.90;;;;;;5075926;28;20185;-75
2022/01/01 04:25:47;;;;;;;4.57;1.80;;;15.70;99.90;;;;;;5111427;28;20207;-75
2022/01/01 04:28:15;;;;;;;3.70;1.60;;;15.70;99.90;;;;;;5074901;28;20287;-74
2022/01/01 04:30:41;;;;;;;4.53;1.90;;;15.70;99.90;;;;;;5109971;28;20176;-75
2022/01/01 04:33:07;;;;;;;2.25;1.55;;;15.70;99.90;;;;;;5077802;28;20183;-73
2022/01/01 04:35:32;;;;;;;4.18;1.95;;;15.70;99.90;;;;;;5076668;28;20176;-76
2022/01/01 04:38:00;;;;;;;2.97;1.38;;;15.70;99.90;;;;;;5079160;28;20188;-73
2022/01/01 04:40:33;;;;;;;6.00;1.92;;;15.70;99.90;;;;;;5106872;28;20175;-76
2022/01/01 04:43:01;;;;;;;4.35;1.80;;;15.70;99.90;;;;;;5076883;28;20184;-75
2022/01/01 04:45:26;;;;;;;4.75;1.67;;;15.70;99.90;;;;;;5109121;28;20199;-75
2022/01/01 04:47:52;;;;;;;3.92;1.85;;;15.70;99.90;;;;;;5070798;28;20192;-74
2022/01/01 04:50:17;;;;;;;4.60;1.50;;;15.70;99.90;;;;;;5076517;28;20179;-75
2022/01/01 04:52:44;;;;;;;3.10;1.60;;;15.70;99.90;;;;;;5077910;28;20199;-72
2022/01/01 04:55:12;;;;;;;5.45;1.60;;;15.70;99.90;;;;;;5076224;28;20203;-74
2022/01/01 04:57:38;;;;;;;3.38;1.70;;;15.70;99.90;;;;;;5078757;28;20196;-75
2022/01/01 05:00:05;;;;;;;3.63;1.55;;;15.70;99.90;;;;;;5074253;28;20196;-70
2022/01/01 05:02:30;;;;;;;5.72;1.90;;;15.70;99.90;;;;;;5078917;28;20337;-75
2022/01/01 05:04:56;;;;;;;3.75;1.65;;;15.70;99.90;;;;;;5076481;28;20270;-74
2022/01/01 05:07:22;;;;;;;4.68;1.83;;;15.70;99.90;;;;;;5075329;28;20257;-73
2022/01/01 05:09:47;;;;;;;5.47;1.70;;;15.70;99.90;;;;;;5080994;28;20176;-71
2022/01/01 05:12:13;;;;;;;2.92;1.42;;;15.70;99.90;;;;;;5074045;28;20196;-73
2022/01/01 05:14:41;;;;;;;3.70;1.50;;;15.70;99.90;;;;;;5074943;28;20216;-76
2022/01/01 05:17:09;;;;;;;4.70;1.58;;;15.70;99.90;;;;;;5074239;28;20194;-72
2022/01/01 05:19:37;;;;;;;4.40;1.85;;;15.70;99.90;;;;;;5102769;28;20196;-75
2022/01/01 05:22:03;;;;;;;3.10;1.52;;;15.70;99.90;;;;;;5071334;28;20190;-75
2022/01/01 05:24:28;;;;;;;7.88;1.90;;;15.70;99.90;;;;;;5075983;28;20217;-70
2022/01/01 05:26:54;;;;;;;3.83;1.52;;;15.70;99.90;;;;;;5080515;28;20534;-74
2022/01/01 05:29:19;;;;;;;4.18;1.50;;;15.70;99.90;;;;;;5075953;28;20179;-75
2022/01/01 05:31:45;;;;;;;3.90;1.50;;;15.70;99.90;;;;;;5072438;28;20230;-75
2022/01/01 05:34:11;;;;;;;2.88;1.42;;;15.70;99.90;;;;;;5068396;28;20172;-73
2022/01/01 05:36:39;;;;;;;5.93;1.95;;;15.70;99.90;;;;;;5072421;28;20278;-75
2022/01/01 05:39:08;;;;;;;4.30;1.73;;;15.70;99.90;;;;;;5086989;28;20188;-74
2022/01/01 05:41:34;;;;;;;5.00;1.70;;;15.70;99.90;;;;;;5097156;28;20244;-75
2022/01/01 05:43:59;;;;;;;4.25;1.90;;;15.70;99.90;;;;;;5072361;28;20233;-74
2022/01/01 05:46:25;;;;;;;4.55;1.60;;;15.60;99.90;;;;;;5070765;28;20192;-73
2022/01/01 05:48:53;;;;;;;4.78;1.85;;;15.60;99.90;;;;;;5098644;28;20204;-73
2022/01/01 05:51:23;;;;;;;2.78;1.48;;;15.60;99.90;;;;;;5077118;28;20237;-73
2022/01/01 05:53:49;;;;;;;4.25;1.60;;;15.60;99.90;;;;;;5074508;28;20290;-75
2022/01/01 05:56:14;;;;;;;4.53;1.70;;;15.60;99.90;;;;;;5075745;28;20272;-73
2022/01/01 05:58:42;;;;;;;4.43;1.77;;;15.60;99.90;;;;;;5076654;28;20553;-73
2022/01/01 06:01:08;;;;;;;3.47;1.70;;;15.60;99.90;;;;;;5072633;28;20200;-73
2022/01/01 06:03:36;;;;;;;4.13;1.60;;;15.60;99.90;;;;;;5074216;28;20218;-75
2022/01/01 06:06:02;;;;;;;3.55;1.63;;;15.60;99.90;;;;;;5075254;28;20183;-75
2022/01/01 06:08:28;;;;;;;2.83;1.50;;;15.60;99.90;;;;;;5079518;28;20202;-71
2022/01/01 06:10:58;;;;;;;6.18;1.55;;;15.60;99.90;;;;;;5114010;27;20211;-74
2022/01/01 06:13:23;;;;;;;3.97;1.40;;;15.60;99.90;;;;;;5073484;28;20173;-76
2022/01/01 06:15:54;;;;;;;4.25;1.60;;;15.60;99.90;;;;;;5076701;28;20247;-73
2022/01/01 06:18:19;;;;;;;2.60;1.38;;;15.60;99.90;;;;;;5074138;28;20240;-75
2022/01/01 06:20:46;;;;;;;3.92;1.42;;;15.60;99.90;;;;;;5075805;28;20211;-75
2022/01/01 06:23:12;;;;;;;4.40;1.52;;;15.60;99.90;;;;;;5074473;28;20564;-74
2022/01/01 06:25:38;;;;;;;4.07;1.50;;;15.60;99.90;;;;;;5079435;28;20220;-72
2022/01/01 06:28:04;;;;;;;5.70;1.60;;;15.60;99.90;;;;;;5076881;28;20516;-75
2022/01/01 06:30:33;;;;;;;2.60;1.48;;;15.60;99.90;;;;;;5071980;28;20257;-75
2022/01/01 06:33:12;;;;;;;5.20;1.65;;;15.60;99.90;;;;;;5074962;28;20172;-76
2022/01/01 06:35:39;;;;;;;3.13;1.25;;;15.60;99.90;;;;;;5078637;28;20188;-76
2022/01/01 06:38:05;;;;;;;3.53;1.55;;;15.60;99.90;;;;;;5075548;28;20182;-74
2022/01/01 06:40:30;;;;;;;3.88;1.50;;;15.60;99.90;;;;;;5074316;28;20275;-74
2022/01/01 06:42:58;;;;;;;3.33;1.77;;;15.60;99.90;;;;;;5074543;28;20223;-74
2022/01/01 06:45:26;;;;;;;4.00;1.50;;;15.50;99.90;;;;;;5073519;28;20180;-75
2022/01/01 06:47:52;;;;;;;3.58;1.55;;;15.50;99.90;;;;;;5076463;28;20225;-73
2022/01/01 06:50:18;;;;;;;3.85;1.70;;;15.50;99.90;;;;;;5071260;28;20194;-76
2022/01/01 06:52:44;;;;;;;4.35;1.70;;;15.50;99.90;;;;;;5073897;28;20224;-75
2022/01/01 06:55:11;;;;;;;4.00;1.60;;;15.50;99.90;;;;;;5075091;28;20176;-75
2022/01/01 06:57:41;;;;;;;5.55;1.60;;;15.50;99.90;;;;;;5075410;28;20222;-75
2022/01/01 07:00:10;;;;;;;2.75;1.25;;;15.50;99.90;;;;;;5072142;28;20187;-74
2022/01/01 07:02:41;;;;;;;3.58;1.50;;;15.50;99.90;;;;;;5076359;28;20183;-71
2022/01/01 07:05:07;;;;;;;3.10;1.40;;;15.50;99.90;;;;;;5073824;28;20259;-73
2022/01/01 07:07:33;;;;;;;2.53;1.50;;;15.50;99.90;;;;;;5073758;28;20204;-74
2022/01/01 07:09:59;;;;;;;3.97;1.63;;;15.50;99.90;;;;;;5076180;28;20188;-73
2022/01/01 07:12:24;;;;;;;4.22;1.70;;;15.50;99.90;;;;;;5106806;28;20171;-73
2022/01/01 07:14:50;;;;;;;2.95;1.27;;;15.50;99.90;;;;;;5075740;28;20266;-75
2022/01/01 07:17:16;;;;;;;2.83;1.45;;;15.50;99.90;;;;;;5068544;28;20207;-70
2022/01/01 07:19:43;;;;;;;4.20;1.40;;;15.50;99.90;;;;;;5072824;28;20195;-72
2022/01/01 07:22:09;;;;;;;2.38;1.30;;;15.50;99.90;;;;;;5070847;28;20199;-73
2022/01/01 07:24:39;;;;;;;3.10;1.35;;;15.50;99.90;;;;;;5073774;28;20309;-74
2022/01/01 07:27:05;;;;;;;5.30;2.00;;;15.50;99.90;;;;;;5103483;28;20418;-73
2022/01/01 07:29:31;;;;;;;2.55;1.27;;;15.50;99.90;;;;;;5073576;28;20308;-72
2022/01/01 07:31:57;;;;;;;2.63;1.50;;;15.40;99.90;;;;;;5105027;28;20232;-75
2022/01/01 07:34:22;;;;;;;3.42;1.40;;;15.50;99.90;;;;;;5076261;28;20190;-75
2022/01/01 07:36:49;;;;;;;3.17;1.23;;;15.40;99.90;;;;;;5074364;28;20208;-73
2022/01/01 07:39:15;;;;;;;4.03;1.30;;;15.40;99.90;;;;;;5085880;28;20176;-73
2022/01/01 07:41:43;;;;;;;2.13;1.40;;;15.40;99.90;;;;;;5076464;28;20175;-75
2022/01/01 07:44:09;;;;;;;3.60;1.30;;;15.40;99.90;;;;;;5082338;28;20233;-75
2022/01/01 07:46:35;;;;;;;3.28;1.38;;;15.40;99.90;;;;;;5074375;28;20179;-75
2022/01/01 07:49:01;;;;;;;2.60;1.40;;;15.40;99.90;;;;;;5073922;28;20183;-74
2022/01/01 07:51:28;;;;;;;2.45;1.33;;;15.40;99.90;;;;;;5074204;28;20240;-74
2022/01/01 07:53:59;;;;;;;2.88;1.23;;;15.40;99.90;;;;;;5107226;28;20202;-74
2022/01/01 07:56:25;;;;;;;2.95;1.50;;;15.40;99.90;;;;;;5080646;28;20267;-75
2022/01/01 07:58:51;;;;;;;2.03;1.30;;;15.40;99.90;;;;;;5072466;28;20271;-75
2022/01/01 08:01:16;;;;;;;2.25;1.50;;;15.40;99.90;;;;;;5074339;28;20179;-75
2022/01/01 08:03:49;;;;;;;3.67;1.70;;;15.50;99.90;;;;;;5078773;28;20232;-75
2022/01/01 08:06:15;;;;;;;3.33;1.40;;;15.50;99.90;;;;;;5077015;28;20262;-74
2022/01/01 08:08:41;;;;;;;2.67;1.40;;;15.50;99.90;;;;;;5077943;28;20188;-73
2022/01/01 08:11:07;;;;;;;2.45;1.55;;;15.50;99.90;;;;;;5076248;28;20211;-76
2022/01/01 08:13:35;;;;;;;2.85;1.63;;;15.50;99.90;;;;;;5076895;28;20218;-73
2022/01/01 08:16:02;;;;;;;2.92;1.30;;;15.50;99.90;;;;;;5078418;28;20263;-70
2022/01/01 08:18:29;;;;;;;3.08;1.58;;;15.50;99.90;;;;;;5069713;28;20208;-73
2022/01/01 08:20:56;;;;;;;3.30;1.35;;;15.50;99.90;;;;;;5084657;28;20237;-70
2022/01/01 08:23:22;;;;;;;2.83;1.50;;;15.50;99.90;;;;;;5074145;28;20273;-75
2022/01/01 08:25:47;;;;;;;2.97;1.45;;;15.50;99.90;;;;;;5075149;28;20257;-74
2022/01/01 08:28:13;;;;;;;2.63;1.20;;;15.50;99.90;;;;;;5104816;27;20192;-75
2022/01/01 08:30:39;;;;;;;2.38;1.27;;;15.50;99.90;;;;;;5070380;28;20187;-72
2022/01/01 08:33:05;;;;;;;4.40;3.05;;;15.50;99.90;;;;;;5076301;28;20198;-75
2022/01/01 08:35:34;;;;;;;3.33;2.00;;;15.50;99.90;;;;;;5074623;28;20203;-74
2022/01/01 08:38:04;;;;;;;3.42;1.90;;;15.50;99.90;;;;;;5075200;28;20199;-74
2022/01/01 08:40:35;;;;;;;2.72;1.75;;;15.50;99.90;;;;;;5075033;28;20204;-75
2022/01/01 08:43:01;;;;;;;2.80;1.50;;;15.50;99.90;;;;;;5074761;28;20180;-73
2022/01/01 08:45:30;;;;;;;2.97;1.77;;;15.60;99.90;;;;;;5075486;28;20213;-72
2022/01/01 08:47:55;;;;;;;2.35;1.40;;;15.60;99.90;;;;;;5073420;28;20199;-76
2022/01/01 08:50:21;;;;;;;3.30;1.65;;;15.60;99.90;;;;;;5076938;28;20176;-75
2022/01/01 08:52:48;;;;;;;2.25;1.10;;;15.60;99.90;;;;;;5110016;28;20206;-76
2022/01/01 08:55:16;;;;;;;3.13;1.52;;;15.60;99.90;;;;;;5074232;28;20207;-75
2022/01/01 08:57:44;;;;;;;2.50;1.25;;;15.70;99.90;;;;;;5076386;28;20239;-76
2022/01/01 09:00:12;;;;;;;3.15;1.50;;;15.70;99.90;;;;;;5078260;28;20208;-71
2022/01/01 09:02:38;;;;;;;2.50;1.50;;;15.70;99.90;;;;;;5072317;28;20173;-70
2022/01/01 09:05:07;;;;;;;2.50;1.30;;;15.70;99.90;;;;;;5065790;28;20332;-73
2022/01/01 09:07:32;;;;;;;2.10;1.33;;;15.80;99.90;;;;;;5067074;28;20203;-68
2022/01/01 09:09:59;;;;;;;2.10;1.27;;;15.80;99.90;;;;;;5073125;28;20165;-72
2022/01/01 09:12:28;;;;;;;2.58;1.48;;;15.80;99.90;;;;;;5074471;28;20172;-70
2022/01/01 09:14:55;;;;;;;2.90;1.48;;;15.90;99.90;;;;;;5076751;28;20175;-73
2022/01/01 09:17:23;;;;;;;4.53;1.52;;;15.90;99.90;;;;;;5074226;28;20198;-71
2022/01/01 09:19:51;;;;;;;3.05;1.33;;;15.90;99.90;;;;;;5073070;28;20203;-72
2022/01/01 09:22:18;;;;;;;3.47;1.23;;;16.00;99.90;;;;;;5078308;28;20194;-74
2022/01/01 09:24:46;;;;;;;3.17;1.35;;;16.00;99.90;;;;;;5076410;28;20195;-73
2022/01/01 09:27:12;;;;;;;2.20;1.48;;;16.00;99.90;;;;;;5073312;28;20200;-70
2022/01/01 09:29:37;;;;;;;2.78;1.67;;;16.00;99.90;;;;;;5073643;28;20172;-75
2022/01/01 09:32:04;;;;;;;2.65;1.50;;;16.00;99.90;;;;;;5077215;28;20160;-72
2022/01/01 09:34:32;;;;;;;2.72;1.65;;;16.00;99.90;;;;;;5074011;28;20203;-77
2022/01/01 09:37:00;;;;;;;2.20;1.13;;;16.00;99.90;;;;;;5074985;28;20179;-67
2022/01/01 09:39:27;;;;;;;4.45;1.42;;;16.00;99.90;;;;;;5072970;28;20326;-70
2022/01/01 09:41:53;;;;;;;2.28;1.50;;;16.00;99.90;;;;;;5080444;28;20225;-75
2022/01/01 09:44:21;;;;;;;2.47;1.27;;;16.00;99.90;;;;;;5072958;28;20176;-69
2022/01/01 09:46:51;;;;;;;1.95;1.58;;;16.10;99.90;;;;;;5076954;28;20195;-69
2022/01/01 09:49:18;;;;;;;1.83;1.30;;;16.10;99.90;;;;;;5065663;28;20176;-70
2022/01/01 09:51:44;;;;;;;3.03;1.40;;;16.10;99.90;;;;;;5074051;28;20180;-70
2022/01/01 09:54:16;;;;;;;3.33;1.40;;;16.10;99.90;;;;;;5073421;28;20201;-70
2022/01/01 09:56:41;;;;;;;2.53;1.40;;;16.20;99.90;;;;;;5084209;28;20224;-70
2022/01/01 09:59:07;;;;;;;2.95;1.25;;;16.20;99.90;;;;;;5073178;28;20275;-68
2022/01/01 10:01:35;;;;;;;2.17;1.35;;;16.20;99.90;;;;;;5076267;28;20206;-69
2022/01/01 10:04:03;;;;;;;1.90;1.30;;;16.20;99.90;;;;;;5075548;28;20243;-70
2022/01/01 10:06:32;;;;;;;2.40;1.30;;;16.30;99.90;;;;;;5074502;28;20200;-69
2022/01/01 10:08:59;;;;;;;3.92;1.60;;;16.30;99.90;;;;;;5076598;28;20215;-70
2022/01/01 10:11:26;;;;;;;2.58;1.30;;;16.40;99.90;;;;;;5071684;28;20172;-71
2022/01/01 10:13:54;;;;;;;3.17;1.35;;;16.40;99.90;;;;;;5075783;28;20281;-71
2022/01/01 10:16:20;;;;;;;1.70;1.38;;;16.40;99.90;;;;;;5074707;28;20172;-70
2022/01/01 10:18:57;;;;;;;3.85;1.63;;;16.40;99.90;;;;;;5074892;28;20234;-72
2022/01/01 10:21:28;;;;;;;1.70;1.30;;;16.50;99.90;;;;;;5069373;28;20203;-70
2022/01/01 10:23:56;;;;;;;3.63;1.48;;;16.50;99.90;;;;;;5076283;28;20259;-70
2022/01/01 10:29:24;;;;;;;2.42;1.20;;;16.50;99.90;;;;;;5093311;28;20210;-70
2022/01/01 10:32:10;;;;;;;2.85;1.33;;;16.60;99.90;;;;;;5068792;28;20187;-69
2022/01/01 10:34:42;;;;;;;2.42;1.60;;;16.60;99.90;;;;;;5074190;28;20183;-71
2022/01/01 10:37:08;;;;;;;2.75;1.40;;;16.70;99.90;;;;;;5071745;28;20190;-70
2022/01/01 10:39:51;;;;;;;2.63;1.23;;;16.80;99.90;;;;;;5066106;28;20207;-71
2022/01/01 10:42:20;;;;;;;1.98;1.15;;;16.90;99.90;;;;;;5086161;28;20180;-69
2022/01/01 10:44:50;;;;;;;2.30;1.20;;;17.00;99.90;;;;;;5068428;28;20195;-72
2022/01/01 10:47:25;;;;;;;2.13;1.48;;;17.10;99.90;;;;;;5075080;28;20200;-71
2022/01/01 10:52:33;;;;;;;2.88;1.63;;;17.20;99.90;;;;;;5092654;28;20204;-69
2022/01/01 10:55:00;;;;;;;2.67;1.60;;;17.20;99.90;;;;;;5075906;28;20179;-70
2022/01/01 10:57:36;;;;;;;3.95;1.52;;;17.20;99.90;;;;;;5106836;27;20207;-71
2022/01/01 11:00:11;;;;;;;2.30;1.60;;;17.20;99.90;;;;;;5073612;28;20199;-71
2022/01/01 11:02:42;;;;;;;2.40;1.30;;;17.20;99.90;;;;;;5088170;28;20213;-72
2022/01/01 11:05:10;;;;;;;3.83;1.45;;;17.20;99.90;;;;;;5069801;28;20172;-69
2022/01/01 11:07:39;;;;;;;3.35;1.50;;;17.20;99.90;;;;;;5073991;28;20210;-69
2022/01/01 11:10:07;;;;;;;2.38;1.45;;;17.20;99.90;;;;;;5072381;28;20263;-69
2022/01/01 11:12:36;;;;;;;2.05;1.40;;;17.20;99.90;;;;;;5076656;28;20341;-66
2022/01/01 11:15:03;;;;;;;2.83;1.50;;;17.20;99.90;;;;;;5072674;28;20186;-66
2022/01/01 11:17:33;;;;;;;1.75;1.33;;;17.10;99.90;;;;;;5069034;28;20180;-69
2022/01/01 11:20:00;;;;;;;3.00;1.20;;;17.10;99.90;;;;;;5071280;28;20208;-70
2022/01/01 11:22:30;;;;;;;2.40;1.40;;;17.10;99.90;;;;;;5068677;28;20168;-69
2022/01/01 11:24:58;;;;;;;3.33;1.38;;;17.10;99.90;;;;;;5069536;28;20188;-69
2022/01/01 11:27:32;;;;;;;3.28;1.50;;;17.00;99.90;;;;;;5074626;28;20204;-68
2022/01/01 11:29:59;;;;;;;2.63;1.48;;;17.00;99.90;;;;;;5067536;28;20179;-68
2022/01/01 11:32:37;;;;;;;3.10;1.60;;;17.00;99.90;;;;;;5103389;28;20261;-70
2022/01/01 11:35:23;;;;;;;2.67;1.90;;;17.10;99.90;;;;;;5105066;28;20182;-68
2022/01/01 11:37:58;;;;;;;1.92;1.60;;;17.10;99.90;;;;;;5068837;28;20184;-68
2022/01/01 11:40:27;;;;;;;2.20;1.67;;;17.10;99.90;;;;;;5070507;28;20226;-69
2022/01/01 11:42:53;;;;;;;2.92;1.50;;;17.10;99.90;;;;;;5072006;28;20177;-67
2022/01/01 11:45:41;;;;;;;2.25;1.20;;;17.00;99.90;;;;;;5072743;28;20198;-64
2022/01/01 11:48:45;;;;;;;1.90;1.27;;;17.00;99.90;;;;;;5078367;28;20191;-69
2022/01/01 11:51:25;;;;;;;2.25;1.60;;;17.10;99.90;;;;;;5091660;28;20197;-67
2022/01/01 11:54:03;;;;;;;2.72;1.50;;;17.10;99.90;;;;;;5088823;28;20295;-68
2022/01/01 11:56:56;;;;;;;1.77;1.60;;;17.20;99.90;;;;;;5089602;28;20199;-68
2022/01/01 11:59:37;;;;;;;2.75;1.55;;;17.20;99.90;;;;;;5075712;28;20232;-69
2022/01/01 12:02:25;;;;;;;2.08;1.40;;;17.30;99.90;;;;;;5078045;28;20280;-68
2022/01/01 12:04:55;;;;;;;2.03;1.33;;;17.40;99.90;;;;;;5071609;28;20224;-67
2022/01/01 12:07:24;;;;;;;3.15;1.45;;;17.50;99.90;;;;;;5069480;28;20295;-71
2022/01/01 12:10:02;;;;;;;1.67;1.30;;;17.60;99.90;;;;;;5070334;28;20179;-68
2022/01/01 12:12:52;;;;;;;2.97;1.50;;;17.70;99.90;;;;;;5074264;28;20268;-70
2022/01/01 12:15:21;;;;;;;4.28;1.67;;;17.90;99.90;;;;;;5082760;28;20200;-72
2022/01/01 12:17:53;;;;;;;3.10;1.55;;;18.10;99.90;;;;;;5073267;28;20496;-70
2022/01/01 12:20:24;;;;;;;2.33;1.50;;;18.30;99.90;;;;;;5074443;28;20268;-72
2022/01/01 12:22:50;;;;;;;2.83;1.50;;;18.50;99.90;;;;;;5074676;28;21845;-71
2022/01/01 12:25:18;;;;;;;2.95;1.70;;;18.60;99.90;;;;;;5072232;28;20254;-71
2022/01/01 12:27:50;;;;;;;2.40;1.83;;;18.80;99.90;;;;;;5074096;28;20214;-68
2022/01/01 12:30:29;;;;;;;1.98;1.40;;;18.90;99.90;;;;;;5075036;28;20210;-70
2022/01/01 12:32:57;;;;;;;1.88;1.50;;;19.00;99.90;;;;;;5074022;28;20192;-64
2022/01/01 12:35:44;;;;;;;1.70;1.40;;;19.00;99.90;;;;;;5069824;28;20187;-67
2022/01/01 12:38:33;;;;;;;2.30;1.45;;;19.00;99.90;;;;;;5075147;28;20181;-66
2022/01/01 12:41:16;;;;;;;1.88;1.30;;;19.10;99.90;;;;;;5070516;28;20200;-66
2022/01/01 12:43:42;;;;;;;3.58;1.80;;;19.10;99.90;;;;;;5076769;28;20183;-67
2022/01/01 12:46:08;;;;;;;4.80;1.40;;;19.10;99.90;;;;;;5092011;28;20338;-67
2022/01/01 12:48:34;;;;;;;2.58;1.58;;;19.00;99.90;;;;;;5069957;28;20207;-63
2022/01/01 12:51:12;;;;;;;3.78;1.38;;;18.90;99.90;;;;;;5082441;28;20179;-67
2022/01/01 12:53:41;;;;;;;1.75;1.30;;;18.70;99.90;;;;;;5077216;28;20203;-67
2022/01/01 12:56:08;;;;;;;1.85;1.30;;;18.60;99.90;;;;;;5074938;28;20179;-68
2022/01/01 12:58:36;;;;;;;1.83;1.20;;;18.40;99.90;;;;;;5077784;28;20263;-67
2022/01/01 13:01:24;;;;;;;1.90;1.17;;;18.30;99.90;;;;;;5067830;28;20200;-66